Tropical Cyclones
[Index]
Main Index Home Page Stock Weather Photos Extreme Storms Discussion Storm News and Storm Chasing Reports Tropical Cyclones / Hurricanes / Typhoons Weather Data and Links Wild Fires / Bushfires Weather Observation Techniques Weather Picture Catalogue Tornado Pictures and Reports Stock Video Footage and DVDs for sale
Season 2004-2005 Tropical Cyclone LOLA Track Map
Season 2004-2005 Summaries (Operational Data): [AU] [SIO] [SPAC] [SH]
<<- Previous TC | 2004-2005 Season | Next TC ->>

click for intensity scale information  Lat/long Grid: Show Hide

 Date Labels: Show Hide

Operational Tropical Cyclone Data

Name: LOLA
Number: 05P2

26 Jan 2005 06:00 UTC to 02 Feb 2005 18:00 UTC

    date/time    lat    long     hPa   cat  kts
2005-01-26 06   15.0   163.0    1000         20          
2005-01-27 00   18.0   168.0    1001         20          
2005-01-27 06   18.5   169.0    1000         20          
2005-01-28 21   16.5   172.5     998         25          
2005-01-29 09   17.0   174.0     998         25          
2005-01-29 21   15.5   175.5     998         25          
2005-01-30 06   16.1   178.4     997         30          
2005-01-30 12   18.5   179.5     997         30          
2005-01-30 18   18.0   179.0W    993         30          
2005-01-31 00   19.5   179.0W    993         30          
2005-01-31 06   20.6   177.9W    993         30          
2005-01-31 12   21.8   176.8W    992    1    40          
2005-01-31 18   22.7   176.5W    990    1    40          
2005-02-01 00   23.5   175.6W    994    1    35          
2005-02-01 06   24.5   175.2W    994    1    35          
2005-02-01 12   25.1   175.1W    995    1    35          
2005-02-01 18   25.1   174.5W    995    1    35          
2005-02-02 00   25.2   176.6W    998    1    35          
2005-02-02 06   25.0   176.0W    998    1    35          
2005-02-02 18   24.5   177.0W    998         25          
Winds are 10-min average.

Tropical cyclone tracks developed by Michael Bath using operational warnings and advisories and Google Maps.


[Australian Severe Weather index] [Copyright Notice] [Email Contacts] [Search This Site] [Privacy Policy]
Document: tropical_cyclone_lola.htm Updated: 28 May 2013